createdAt,value
2019-01-25T00:01:41.708Z,56.27
2019-01-25T00:04:16.203Z,54.37
2019-01-25T00:06:50.767Z,55.07
2019-01-25T00:09:24.463Z,59.77
2019-01-25T00:11:57.847Z,58.63
2019-01-25T00:14:30.842Z,57.73
2019-01-25T00:17:04.135Z,57.60
2019-01-25T00:19:40.424Z,57.70
2019-01-25T00:22:13.482Z,55.70
2019-01-25T00:24:46.518Z,55.97
2019-01-25T00:27:20.832Z,53.67
2019-01-25T00:29:53.826Z,53.37
2019-01-25T00:32:28.836Z,55.33
2019-01-25T00:35:02.340Z,56.95
2019-01-25T00:37:36.081Z,56.33
2019-01-25T00:40:12.689Z,55.57
2019-01-25T00:42:45.984Z,57.90
2019-01-25T00:45:20.033Z,58.13
2019-01-25T00:47:52.945Z,56.23
2019-01-25T00:50:25.986Z,55.90
2019-01-25T00:52:59.333Z,54.03
2019-01-25T00:55:32.492Z,53.50
2019-01-25T00:58:06.131Z,55.57
2019-01-25T01:00:39.399Z,55.72
2019-01-25T01:03:12.346Z,56.10
2019-01-25T01:05:47.176Z,54.93
2019-01-25T01:08:20.511Z,57.28
2019-01-25T01:10:53.454Z,53.43
2019-01-25T01:13:26.369Z,52.73
2019-01-25T01:15:59.911Z,54.40
2019-01-25T01:18:33.427Z,54.73
2019-01-25T01:21:06.449Z,55.13
2019-01-25T01:23:39.991Z,51.97
2019-01-25T01:26:14.483Z,55.13
2019-01-25T01:28:47.261Z,54.10
2019-01-25T01:31:21.544Z,55.00
2019-01-25T01:33:55.122Z,54.20
2019-01-25T01:36:29.048Z,54.37
2019-01-25T01:39:05.211Z,51.70
2019-01-25T01:41:38.175Z,56.07
2019-01-25T01:44:11.126Z,53.87
2019-01-25T01:46:44.532Z,54.67
2019-01-25T01:49:17.332Z,54.43
2019-01-25T01:51:51.224Z,50.23
2019-01-25T01:54:24.815Z,53.30
2019-01-25T01:56:57.672Z,56.22
2019-01-25T01:59:31.252Z,53.27
2019-01-25T02:02:04.949Z,54.07
2019-01-25T02:04:37.959Z,56.95
2019-01-25T02:07:10.947Z,53.27
2019-01-25T02:09:44.299Z,54.50
2019-01-25T02:12:17.519Z,52.47
2019-01-25T02:14:50.476Z,52.77
2019-01-25T02:17:23.941Z,54.10
2019-01-25T02:19:57.730Z,53.50
2019-01-25T02:22:30.679Z,52.83
2019-01-25T02:25:04.844Z,54.63
2019-01-25T02:27:40.410Z,55.50
2019-01-25T02:30:19.785Z,58.47
2019-01-25T02:32:54.032Z,53.50
2019-01-25T02:35:26.851Z,54.47
2019-01-25T02:38:01.280Z,54.97
2019-01-25T02:40:39.186Z,54.63
2019-01-25T02:43:13.875Z,55.50
2019-01-25T02:45:48.072Z,56.17
2019-01-25T02:48:20.916Z,53.13
2019-01-25T02:50:53.755Z,55.83
2019-01-25T02:53:28.375Z,53.77
2019-01-25T02:56:01.475Z,54.30
2019-01-25T02:58:37.915Z,55.47
2019-01-25T03:01:11.655Z,54.10
2019-01-25T03:03:44.806Z,53.93
2019-01-25T03:06:17.923Z,52.57
2019-01-25T03:08:51.362Z,53.53
2019-01-25T03:11:24.288Z,53.80
2019-01-25T03:13:57.328Z,51.47
2019-01-25T03:16:30.665Z,52.87
2019-01-25T03:19:04.187Z,53.87
2019-01-25T03:21:37.055Z,52.13
2019-01-25T03:24:11.504Z,53.07
2019-01-25T03:26:44.289Z,55.45
2019-01-25T03:29:17.561Z,52.87
2019-01-25T03:31:51.874Z,52.97
2019-01-25T03:34:24.935Z,54.13
2019-01-25T03:36:58.800Z,56.65
2019-01-25T03:39:36.037Z,52.07
2019-01-25T03:42:08.986Z,54.13
2019-01-25T03:44:46.634Z,52.60
2019-01-25T03:47:23.456Z,51.47
2019-01-25T03:49:56.347Z,52.03
2019-01-25T03:52:29.875Z,51.93
2019-01-25T03:55:02.907Z,52.40
2019-01-25T03:57:36.291Z,52.83
2019-01-25T04:00:16.555Z,51.90
2019-01-25T04:02:51.798Z,51.63
2019-01-25T04:05:26.326Z,53.63
2019-01-25T04:07:59.719Z,50.60
2019-01-25T04:10:32.831Z,51.70
2019-01-25T04:13:06.555Z,50.67
2019-01-25T04:15:40.563Z,52.30
2019-01-25T04:18:13.461Z,52.40
2019-01-25T04:20:46.511Z,52.60
2019-01-25T04:23:19.900Z,56.13
2019-01-25T04:25:53.954Z,55.22
2019-01-25T04:28:26.767Z,52.07
2019-01-25T04:31:02.578Z,52.73
2019-01-25T04:33:35.572Z,51.80
2019-01-25T04:36:08.734Z,49.73
2019-01-25T04:38:42.116Z,49.63
2019-01-25T04:41:15.074Z,55.25
2019-01-25T04:43:49.684Z,53.27
2019-01-25T04:46:23.531Z,53.57
2019-01-25T04:48:57.053Z,53.43
2019-01-25T04:51:30.593Z,51.50
2019-01-25T04:54:04.096Z,53.60
2019-01-25T04:56:39.934Z,52.27
2019-01-25T04:59:12.743Z,53.00
2019-01-25T05:01:46.144Z,52.77
2019-01-25T05:04:18.920Z,52.67
2019-01-25T05:06:52.003Z,53.65
2019-01-25T05:09:26.859Z,54.87
2019-01-25T05:12:05.125Z,53.50
2019-01-25T05:14:38.464Z,52.37
2019-01-25T05:17:11.867Z,61.80
2019-01-25T05:19:46.289Z,56.37
2019-01-25T05:22:19.446Z,55.63
2019-01-25T05:24:52.860Z,57.17
2019-01-25T05:27:25.880Z,53.70
2019-01-25T05:29:59.057Z,53.37
2019-01-25T05:32:33.420Z,57.73
2019-01-25T05:35:06.287Z,54.97
2019-01-25T05:37:39.494Z,51.27
2019-01-25T05:40:20.601Z,49.17
2019-01-25T05:42:57.409Z,50.10
2019-01-25T05:45:30.880Z,53.00
2019-01-25T05:48:06.108Z,52.77
2019-01-25T05:50:38.933Z,53.43
2019-01-25T05:53:13.886Z,52.40
2019-01-25T05:55:47.201Z,52.63
2019-01-25T05:58:23.441Z,54.97
2019-01-25T06:00:57.346Z,55.20
2019-01-25T06:03:30.602Z,58.33
2019-01-25T06:06:08.460Z,54.13
2019-01-25T06:08:44.006Z,61.22
2019-01-25T06:11:18.728Z,57.43
2019-01-25T06:13:53.900Z,52.57
2019-01-25T06:16:26.824Z,58.77
2019-01-25T06:19:00.583Z,59.57
2019-01-25T06:21:33.915Z,67.43
2019-01-25T06:24:06.778Z,63.70
2019-01-25T06:26:46.455Z,68.73
2019-01-25T06:29:20.345Z,63.20
2019-01-25T06:31:53.623Z,62.47
2019-01-25T06:34:28.216Z,64.63
2019-01-25T06:37:01.803Z,61.83
2019-01-25T06:39:35.217Z,68.53
2019-01-25T06:42:10.664Z,69.00
2019-01-25T06:44:45.011Z,68.97
2019-01-25T06:47:18.055Z,68.70
2019-01-25T06:49:52.668Z,72.47
2019-01-25T06:52:26.008Z,70.53
2019-01-25T06:55:04.294Z,74.17
2019-01-25T06:57:49.389Z,76.33
2019-01-25T07:00:24.733Z,76.43
2019-01-25T07:03:02.518Z,78.20
2019-01-25T07:05:35.423Z,80.50
2019-01-25T07:08:14.842Z,87.47
2019-01-25T07:10:48.683Z,79.17
2019-01-25T07:13:22.560Z,83.20
2019-01-25T07:15:56.661Z,74.80
2019-01-25T07:18:29.529Z,79.13
2019-01-25T07:21:02.486Z,78.43
2019-01-25T07:23:35.922Z,80.67
2019-01-25T07:26:08.840Z,83.77
2019-01-25T07:28:43.613Z,77.73
2019-01-25T07:31:17.377Z,90.10
2019-01-25T07:33:52.143Z,83.77
2019-01-25T07:36:26.481Z,79.70
2019-01-25T07:38:59.378Z,84.43
2019-01-25T07:41:31.733Z,80.97
2019-01-25T07:44:06.851Z,93.50
2019-01-25T07:46:40.552Z,82.07
2019-01-25T07:49:13.549Z,84.80
2019-01-25T07:51:48.636Z,89.70
2019-01-25T07:54:24.546Z,83.70
2019-01-25T07:56:57.867Z,84.10
2019-01-25T07:59:36.686Z,80.63
2019-01-25T08:02:13.618Z,81.70
2019-01-25T08:04:47.841Z,82.17
2019-01-25T08:07:32.877Z,78.80
2019-01-25T08:10:18.219Z,83.73
2019-01-25T08:12:55.953Z,82.77
2019-01-25T08:15:30.253Z,83.53
2019-01-25T08:18:04.804Z,81.53
2019-01-25T08:20:37.674Z,79.77
2019-01-25T08:23:10.709Z,91.63
2019-01-25T08:25:44.453Z,80.83
2019-01-25T08:28:17.800Z,90.22
2019-01-25T08:30:51.148Z,83.13
2019-01-25T08:33:24.513Z,81.60
2019-01-25T08:36:00.595Z,78.33
2019-01-25T08:38:37.081Z,81.77
2019-01-25T08:41:10.661Z,81.07
2019-01-25T08:43:44.879Z,88.30
2019-01-25T08:46:23.437Z,82.13
2019-01-25T08:48:57.860Z,79.47
2019-01-25T08:51:32.325Z,77.43
2019-01-25T08:54:05.767Z,80.73
2019-01-25T08:56:42.717Z,84.13
2019-01-25T08:59:17.383Z,89.78
2019-01-25T09:01:50.864Z,82.87
2019-01-25T09:04:27.725Z,83.07
2019-01-25T09:07:02.676Z,83.27
2019-01-25T09:09:38.703Z,86.30
2019-01-25T09:12:13.549Z,88.20
2019-01-25T09:14:49.474Z,80.70
2019-01-25T09:17:24.356Z,83.53
2019-01-25T09:20:02.536Z,83.50
2019-01-25T09:22:35.389Z,82.07
2019-01-25T09:25:35.787Z,84.57
2019-01-25T09:28:14.017Z,81.50
2019-01-25T09:30:48.820Z,78.47
2019-01-25T09:33:23.486Z,80.28
2019-01-25T09:35:57.345Z,77.90
2019-01-25T09:38:36.776Z,73.07
2019-01-25T09:41:13.138Z,80.78
2019-01-25T09:43:48.124Z,77.10
2019-01-25T09:46:25.649Z,74.87
2019-01-25T09:48:59.530Z,82.72
2019-01-25T09:51:37.836Z,73.53
2019-01-25T09:54:12.377Z,77.13
2019-01-25T09:56:48.453Z,76.13
2019-01-25T09:59:25.395Z,77.30
2019-01-25T10:01:58.331Z,75.73
2019-01-25T10:04:35.422Z,74.30
2019-01-25T10:07:12.168Z,76.03
2019-01-25T10:09:49.799Z,80.20
2019-01-25T10:12:24.536Z,79.03
2019-01-25T10:14:59.497Z,78.00
2019-01-25T10:17:41.683Z,83.63
2019-01-25T10:20:16.537Z,77.33
2019-01-25T10:22:53.800Z,80.90
2019-01-25T10:25:29.517Z,84.27
2019-01-25T10:28:03.811Z,85.53
2019-01-25T10:30:36.897Z,91.50
2019-01-25T10:33:13.540Z,84.63
2019-01-25T10:35:51.898Z,87.30
2019-01-25T10:38:25.708Z,78.83
2019-01-25T10:41:05.020Z,87.22
2019-01-25T10:43:38.072Z,78.43
2019-01-25T10:46:11.926Z,81.07
2019-01-25T10:48:46.353Z,81.67
2019-01-25T10:51:22.772Z,80.27
2019-01-25T10:54:06.474Z,76.20
2019-01-25T10:56:41.956Z,77.53
2019-01-25T10:59:15.144Z,74.63
2019-01-25T11:01:49.932Z,76.03
2019-01-25T11:04:27.165Z,74.97
2019-01-25T11:07:01.317Z,75.17
2019-01-25T11:09:38.139Z,72.03
2019-01-25T11:12:12.724Z,65.63
2019-01-25T11:14:48.775Z,71.07
2019-01-25T11:17:23.832Z,64.33
2019-01-25T11:19:57.679Z,67.95
2019-01-25T11:22:30.877Z,62.67
2019-01-25T11:25:08.904Z,58.13
2019-01-25T11:27:41.758Z,64.77
2019-01-25T11:30:24.512Z,58.57
2019-01-25T11:32:58.332Z,61.03
2019-01-25T11:35:31.481Z,58.43
2019-01-25T11:38:07.488Z,63.47
2019-01-25T11:40:44.140Z,57.87
2019-01-25T11:43:20.014Z,59.73
2019-01-25T11:45:56.834Z,62.07
2019-01-25T11:48:33.481Z,58.40
2019-01-25T11:51:09.893Z,58.07
2019-01-25T11:53:43.409Z,56.93
2019-01-25T11:56:17.484Z,57.73
2019-01-25T11:58:52.995Z,56.33
2019-01-25T12:01:31.700Z,56.00
2019-01-25T12:04:08.274Z,55.53
2019-01-25T12:06:41.172Z,56.50
2019-01-25T12:09:16.444Z,56.93
2019-01-25T12:11:49.425Z,54.00
2019-01-25T12:14:23.406Z,54.73
2019-01-25T12:16:56.422Z,52.73
2019-01-25T12:19:30.760Z,49.80
2019-01-25T12:22:05.730Z,44.07
2019-01-25T12:24:42.083Z,50.10
2019-01-25T12:27:17.447Z,49.17
2019-01-25T12:29:52.172Z,44.80
2019-01-25T12:32:28.208Z,46.10
2019-01-25T12:35:07.348Z,42.53
2019-01-25T12:37:42.995Z,43.00
2019-01-25T12:40:17.765Z,43.97
2019-01-25T12:42:50.685Z,42.40
2019-01-25T12:45:27.027Z,46.20
2019-01-25T12:48:03.229Z,41.80
2019-01-25T12:50:49.135Z,45.10
2019-01-25T12:53:26.747Z,44.07
2019-01-25T12:56:02.384Z,42.67
2019-01-25T12:58:36.372Z,43.13
2019-01-25T13:01:10.302Z,38.80
2019-01-25T13:03:44.204Z,40.57
2019-01-25T13:06:18.230Z,43.93
2019-01-25T13:08:52.558Z,42.20
2019-01-25T13:11:26.393Z,41.47
2019-01-25T13:14:00.466Z,41.10
2019-01-25T13:16:35.989Z,41.20
2019-01-25T13:19:11.819Z,40.37
2019-01-25T13:21:48.916Z,37.57
2019-01-25T13:24:23.558Z,37.63
2019-01-25T13:27:00.411Z,35.07
2019-01-25T13:29:34.266Z,36.13
2019-01-25T13:32:14.445Z,35.03
2019-01-25T13:34:51.539Z,35.27
2019-01-25T13:37:31.315Z,35.53
2019-01-25T13:40:12.436Z,36.20
2019-01-25T13:42:59.595Z,33.60
2019-01-25T13:45:33.737Z,33.60
2019-01-25T13:48:06.942Z,35.40
2019-01-25T13:50:41.517Z,33.33
2019-01-25T13:53:24.778Z,33.60
2019-01-25T13:55:59.999Z,31.73
2019-01-25T13:58:36.876Z,30.00
2019-01-25T14:01:10.936Z,30.27
2019-01-25T14:03:46.690Z,27.47
2019-01-25T14:06:22.809Z,27.27
2019-01-25T14:08:59.023Z,26.50
2019-01-25T14:11:34.801Z,26.10
2019-01-25T14:14:08.541Z,20.37
2019-01-25T14:16:41.616Z,20.70
2019-01-25T14:19:16.526Z,19.50
2019-01-25T14:21:55.255Z,19.37
2019-01-25T14:24:29.218Z,20.23
2019-01-25T14:27:03.968Z,21.63
2019-01-25T14:29:39.069Z,25.55
2019-01-25T14:32:13.616Z,28.73
2019-01-25T14:34:48.853Z,29.63
2019-01-25T14:37:23.570Z,29.97
2019-01-25T14:39:57.187Z,31.33
2019-01-25T14:42:31.360Z,30.27
2019-01-25T14:45:10.545Z,31.03
2019-01-25T14:47:46.126Z,32.73
2019-01-25T14:50:21.832Z,31.37
2019-01-25T14:53:00.725Z,30.83
2019-01-25T14:55:37.526Z,33.30
2019-01-25T14:58:13.398Z,32.13
2019-01-25T15:00:54.731Z,31.97
2019-01-25T15:03:41.083Z,30.90
2019-01-25T15:06:22.852Z,33.25
2019-01-25T15:09:12.793Z,31.33
2019-01-25T15:11:54.246Z,30.93
2019-01-25T15:14:35.766Z,30.20
2019-01-25T15:17:14.091Z,28.20
2019-01-25T15:20:02.947Z,28.83
2019-01-25T15:22:50.209Z,29.58
2019-01-25T15:25:30.540Z,31.23
2019-01-25T15:28:10.298Z,29.67
2019-01-25T15:30:56.471Z,30.57
2019-01-25T15:33:45.988Z,30.10
2019-01-25T15:36:31.530Z,29.93
2019-01-25T15:39:14.860Z,30.77
2019-01-25T15:41:57.346Z,30.80
2019-01-25T15:44:41.854Z,30.73
2019-01-25T15:47:20.163Z,30.97
2019-01-25T15:50:05.886Z,30.23
2019-01-25T15:52:41.129Z,30.20
2019-01-25T15:55:15.452Z,32.30
2019-01-25T15:57:58.506Z,28.50
2019-01-25T16:00:32.769Z,29.08
2019-01-25T16:03:08.783Z,28.60
2019-01-25T16:05:43.673Z,29.90
2019-01-25T16:08:21.807Z,27.87
2019-01-25T16:11:00.809Z,27.00
2019-01-25T16:13:43.121Z,28.27
2019-01-25T16:16:20.396Z,26.03
2019-01-25T16:19:07.853Z,25.87
2019-01-25T16:21:42.603Z,26.85
2019-01-25T16:24:15.636Z,25.33
2019-01-25T16:26:49.611Z,23.13
2019-01-25T16:29:24.708Z,20.67
2019-01-25T16:32:01.956Z,21.30
2019-01-25T16:34:38.235Z,18.90
2019-01-25T16:37:14.398Z,19.03
2019-01-25T16:39:50.052Z,19.77
2019-01-25T16:42:24.777Z,20.37
2019-01-25T16:44:58.014Z,20.87
2019-01-25T16:47:31.465Z,21.70
2019-01-25T16:50:08.302Z,22.37
2019-01-25T16:52:48.349Z,23.67
2019-01-25T16:55:22.062Z,25.03
2019-01-25T16:57:58.641Z,24.20
2019-01-25T17:00:40.403Z,23.27
2019-01-25T17:03:22.612Z,24.47
2019-01-25T17:05:56.381Z,26.73
2019-01-25T17:08:33.377Z,26.00
2019-01-25T17:11:06.731Z,27.67
2019-01-25T17:13:44.437Z,28.47
2019-01-25T17:16:19.642Z,28.37
2019-01-25T17:18:55.624Z,29.20
2019-01-25T17:21:29.682Z,30.47
2019-01-25T17:24:06.647Z,30.83
2019-01-25T17:26:42.031Z,40.27
2019-01-25T17:29:17.341Z,34.87
2019-01-25T17:31:54.680Z,36.85
2019-01-25T17:34:32.244Z,34.63
2019-01-25T17:37:06.043Z,31.93
2019-01-25T17:39:57.717Z,32.00
2019-01-25T17:42:32.392Z,35.20
2019-01-25T17:45:09.103Z,37.57
2019-01-25T17:47:47.468Z,38.23
2019-01-25T17:50:20.659Z,37.47
2019-01-25T17:52:55.617Z,36.10
2019-01-25T17:55:36.522Z,34.60
2019-01-25T17:58:16.445Z,35.07
2019-01-25T18:00:57.601Z,37.37
2019-01-25T18:03:32.528Z,36.40
2019-01-25T18:06:05.924Z,37.73
2019-01-25T18:08:38.923Z,41.08
2019-01-25T18:11:12.632Z,34.27
2019-01-25T18:13:45.702Z,34.20
2019-01-25T18:16:24.900Z,36.90
2019-01-25T18:18:58.739Z,39.63
2019-01-25T18:21:34.835Z,37.07
2019-01-25T18:24:12.300Z,37.60
2019-01-25T18:26:46.382Z,35.53
2019-01-25T18:29:40.232Z,35.50
2019-01-25T18:32:14.040Z,36.80
2019-01-25T18:34:49.808Z,40.43
2019-01-25T18:37:25.309Z,40.57
2019-01-25T18:39:59.374Z,41.47
2019-01-25T18:42:34.236Z,40.47
2019-01-25T18:45:14.462Z,39.83
2019-01-25T18:47:48.663Z,38.20
2019-01-25T18:50:25.794Z,40.80
2019-01-25T18:53:02.106Z,42.53
2019-01-25T18:55:36.200Z,46.92
2019-01-25T18:58:10.536Z,41.17
2019-01-25T19:00:46.653Z,40.90
2019-01-25T19:03:21.945Z,40.90
2019-01-25T19:05:58.874Z,41.93
2019-01-25T19:08:35.162Z,43.87
2019-01-25T19:11:12.612Z,40.73
2019-01-25T19:13:51.216Z,39.80
2019-01-25T19:16:29.453Z,40.00
2019-01-25T19:19:04.708Z,38.87
2019-01-25T19:21:39.189Z,43.67
2019-01-25T19:24:14.613Z,39.47
2019-01-25T19:26:50.050Z,39.17
2019-01-25T19:29:27.836Z,41.28
2019-01-25T19:32:03.862Z,37.10
2019-01-25T19:34:45.141Z,38.00
2019-01-25T19:37:35.221Z,39.13
2019-01-25T19:40:17.303Z,37.83
2019-01-25T19:42:55.888Z,43.03
2019-01-25T19:45:36.577Z,40.87
2019-01-25T19:48:12.647Z,41.72
2019-01-25T19:50:48.596Z,34.77
2019-01-25T19:53:33.487Z,34.77
2019-01-25T19:56:10.025Z,36.23
2019-01-25T19:58:50.365Z,33.40
2019-01-25T20:01:29.405Z,34.03
2019-01-25T20:04:02.988Z,35.00
2019-01-25T20:06:37.663Z,33.97
2019-01-25T20:09:12.650Z,34.13
2019-01-25T20:11:51.710Z,32.33
2019-01-25T20:14:33.544Z,34.53
2019-01-25T20:17:09.097Z,35.27
2019-01-25T20:19:46.773Z,32.83
2019-01-25T20:22:21.880Z,35.35
2019-01-25T20:24:57.456Z,31.50
2019-01-25T20:27:34.744Z,31.23
2019-01-25T20:30:20.230Z,31.57
2019-01-25T20:32:57.417Z,31.87
2019-01-25T20:35:40.246Z,32.20
2019-01-25T20:38:16.576Z,29.83
2019-01-25T20:40:50.688Z,32.30
2019-01-25T20:43:29.436Z,33.40
2019-01-25T20:46:02.555Z,32.43
2019-01-25T20:48:37.417Z,32.83
2019-01-25T20:51:17.902Z,37.63
2019-01-25T20:53:52.035Z,35.00
2019-01-25T20:56:26.314Z,32.90
2019-01-25T20:59:02.031Z,33.10
2019-01-25T21:01:35.116Z,34.47
2019-01-25T21:04:09.464Z,34.70
2019-01-25T21:06:42.568Z,33.67
2019-01-25T21:09:17.630Z,34.77
2019-01-25T21:11:54.707Z,34.83
2019-01-25T21:14:27.874Z,35.07
2019-01-25T21:17:04.411Z,34.97
2019-01-25T21:19:38.798Z,34.83
2019-01-25T21:22:11.998Z,34.80
2019-01-25T21:24:45.301Z,36.47
2019-01-25T21:27:22.297Z,35.30
2019-01-25T21:29:56.286Z,35.60
2019-01-25T21:32:30.545Z,36.13
2019-01-25T21:35:06.105Z,33.07
2019-01-25T21:37:41.738Z,32.63
2019-01-25T21:40:19.120Z,33.97
2019-01-25T21:42:53.724Z,34.60
2019-01-25T21:45:30.212Z,34.03
2019-01-25T21:48:09.421Z,34.53
2019-01-25T21:50:45.402Z,35.60
2019-01-25T21:53:19.224Z,37.88
2019-01-25T21:55:53.092Z,29.97
2019-01-25T21:58:26.135Z,30.67
2019-01-25T22:01:10.202Z,31.60
2019-01-25T22:03:46.334Z,32.63
2019-01-25T22:06:19.312Z,33.17
2019-01-25T22:08:54.028Z,33.07
2019-01-25T22:11:31.105Z,31.23
2019-01-25T22:14:06.144Z,30.83
2019-01-25T22:16:45.165Z,29.37
2019-01-25T22:19:20.523Z,30.30
2019-01-25T22:21:55.605Z,30.27
2019-01-25T22:24:29.335Z,28.73
2019-01-25T22:27:04.650Z,32.20
2019-01-25T22:29:41.956Z,30.67
2019-01-25T22:32:17.388Z,30.03
2019-01-25T22:34:54.333Z,33.73
2019-01-25T22:37:28.404Z,33.70
2019-01-25T22:40:02.860Z,37.13
2019-01-25T22:42:37.589Z,31.83
2019-01-25T22:45:15.769Z,31.10
2019-01-25T22:47:51.519Z,31.87
2019-01-25T22:50:29.374Z,32.17
2019-01-25T22:53:08.294Z,33.33
2019-01-25T22:55:42.030Z,32.87
2019-01-25T22:58:16.210Z,32.77
2019-01-25T23:01:11.833Z,34.90
2019-01-25T23:04:37.005Z,34.33
2019-01-25T23:07:28.041Z,40.33
2019-01-25T23:10:15.813Z,41.47
2019-01-25T23:12:49.189Z,39.60
2019-01-25T23:15:23.576Z,41.97
2019-01-25T23:17:58.156Z,48.93
2019-01-25T23:20:31.056Z,54.80
2019-01-25T23:23:05.538Z,59.67
2019-01-25T23:25:39.728Z,56.87
2019-01-25T23:28:13.329Z,70.95
2019-01-25T23:30:46.870Z,58.37
2019-01-25T23:33:20.733Z,57.87
2019-01-25T23:35:56.584Z,61.57
2019-01-25T23:38:29.563Z,61.97
2019-01-25T23:41:02.479Z,66.93
2019-01-25T23:43:37.788Z,87.87
2019-01-25T23:46:13.865Z,75.77
2019-01-25T23:48:48.485Z,75.00
2019-01-25T23:51:23.785Z,89.03
2019-01-25T23:53:57.857Z,86.90
2019-01-25T23:56:32.375Z,88.03
2019-01-25T23:59:06.630Z,90.27
